createdAt,value
2018-07-19T00:00:47.489Z,2.90
2018-07-19T00:03:15.302Z,3.43
2018-07-19T00:05:43.051Z,3.23
2018-07-19T00:08:10.895Z,3.37
2018-07-19T00:10:38.639Z,3.10
2018-07-19T00:13:06.354Z,2.90
2018-07-19T00:15:34.096Z,2.80
2018-07-19T00:18:01.872Z,2.93
2018-07-19T00:20:29.588Z,3.17
2018-07-19T00:22:57.374Z,3.00
2018-07-19T00:25:25.083Z,2.80
2018-07-19T00:27:52.965Z,3.07
2018-07-19T00:30:20.700Z,3.00
2018-07-19T00:32:48.418Z,2.93
2018-07-19T00:35:16.307Z,3.20
2018-07-19T00:37:44.054Z,3.00
2018-07-19T00:40:12.057Z,2.80
2018-07-19T00:42:39.877Z,2.80
2018-07-19T00:45:07.611Z,2.97
2018-07-19T00:47:35.433Z,2.97
2018-07-19T00:50:03.606Z,2.90
2018-07-19T00:52:31.345Z,2.97
2018-07-19T00:54:59.139Z,3.00
2018-07-19T00:57:26.893Z,2.50
2018-07-19T00:59:54.578Z,3.00
2018-07-19T01:02:22.391Z,2.87
2018-07-19T01:04:50.162Z,3.17
2018-07-19T01:07:17.929Z,3.13
2018-07-19T01:09:45.646Z,2.90
2018-07-19T01:12:13.470Z,2.90
2018-07-19T01:14:41.187Z,2.93
2018-07-19T01:17:08.917Z,2.67
2018-07-19T01:19:36.669Z,2.67
2018-07-19T01:22:04.473Z,2.83
2018-07-19T01:24:32.204Z,3.27
2018-07-19T01:26:59.954Z,2.97
2018-07-19T01:29:27.739Z,2.70
2018-07-19T01:31:55.451Z,2.87
2018-07-19T01:34:23.274Z,3.07
2018-07-19T01:36:51.046Z,3.10
2018-07-19T01:39:18.826Z,3.37
2018-07-19T01:42:34.897Z,3.30
2018-07-19T01:45:02.625Z,3.40
2018-07-19T01:47:31.419Z,3.30
2018-07-19T01:49:59.261Z,3.73
2018-07-19T01:52:26.998Z,3.13
2018-07-19T01:54:54.742Z,4.13
2018-07-19T01:57:22.482Z,3.17
2018-07-19T01:59:50.491Z,3.37
2018-07-19T02:02:18.505Z,3.37
2018-07-19T02:04:46.365Z,3.10
2018-07-19T02:07:14.224Z,3.70
2018-07-19T02:09:42.150Z,3.47
2018-07-19T02:12:10.074Z,3.47
2018-07-19T02:14:37.820Z,3.60
2018-07-19T02:17:05.806Z,3.70
2018-07-19T02:19:33.562Z,3.60
2018-07-19T02:22:01.393Z,3.70
2018-07-19T02:24:29.130Z,3.67
2018-07-19T02:26:56.837Z,3.93
2018-07-19T02:29:24.537Z,3.63
2018-07-19T02:31:52.281Z,3.90
2018-07-19T02:34:20.104Z,3.53
2018-07-19T02:36:47.866Z,3.90
2018-07-19T02:39:15.794Z,3.70
2018-07-19T02:41:43.552Z,4.07
2018-07-19T02:44:12.412Z,4.30
2018-07-19T02:46:41.173Z,3.47
2018-07-19T02:49:09.174Z,3.53
2018-07-19T02:51:37.644Z,3.83
2018-07-19T02:54:05.458Z,3.90
2018-07-19T02:56:34.141Z,3.80
2018-07-19T02:59:02.027Z,4.27
2018-07-19T03:01:29.770Z,4.50
2018-07-19T03:03:57.516Z,4.57
2018-07-19T03:06:25.312Z,3.97
2018-07-19T03:08:53.134Z,3.97
2018-07-19T03:11:21.055Z,3.47
2018-07-19T03:13:48.883Z,3.63
2018-07-19T03:16:16.872Z,3.90
2018-07-19T03:18:44.634Z,3.70
2018-07-19T03:21:12.447Z,3.33
2018-07-19T03:23:40.501Z,3.67
2018-07-19T03:26:08.242Z,3.70
2018-07-19T03:28:35.961Z,3.50
2018-07-19T03:31:03.814Z,3.80
2018-07-19T03:33:31.642Z,4.07
2018-07-19T03:35:59.533Z,3.63
2018-07-19T03:38:27.434Z,4.13
2018-07-19T03:40:56.265Z,4.07
2018-07-19T03:43:24.219Z,4.23
2018-07-19T03:45:52.178Z,4.10
2018-07-19T03:48:20.005Z,3.70
2018-07-19T03:50:47.757Z,3.67
2018-07-19T03:53:15.596Z,3.93
2018-07-19T03:55:43.333Z,3.47
2018-07-19T03:58:11.059Z,3.90
2018-07-19T04:00:38.824Z,4.13
2018-07-19T04:03:06.628Z,4.50
2018-07-19T04:05:34.393Z,3.93
2018-07-19T04:08:02.112Z,4.53
2018-07-19T04:10:29.819Z,4.37
2018-07-19T04:12:57.577Z,3.70
2018-07-19T04:15:25.301Z,4.07
2018-07-19T04:17:56.909Z,4.33
2018-07-19T04:20:25.861Z,3.90
2018-07-19T04:22:54.407Z,3.77
2018-07-19T04:25:22.745Z,3.30
2018-07-19T04:27:50.667Z,3.70
2018-07-19T04:30:18.497Z,3.60
2018-07-19T04:32:46.283Z,3.53
2018-07-19T04:35:14.021Z,3.30
2018-07-19T04:37:41.836Z,3.27
2018-07-19T04:40:09.564Z,3.33
2018-07-19T04:42:37.306Z,3.87
2018-07-19T04:45:05.481Z,3.17
2018-07-19T04:47:33.269Z,3.57
2018-07-19T04:50:00.962Z,3.00
2018-07-19T04:52:28.752Z,4.00
2018-07-19T04:54:56.537Z,3.73
2018-07-19T04:57:24.405Z,3.37
2018-07-19T04:59:52.155Z,3.43
2018-07-19T05:02:20.277Z,3.43
2018-07-19T05:04:48.002Z,3.23
2018-07-19T05:07:16.055Z,3.30
2018-07-19T05:09:43.772Z,3.60
2018-07-19T05:12:11.519Z,2.93
2018-07-19T05:14:39.254Z,4.00
2018-07-19T05:17:06.955Z,3.40
2018-07-19T05:19:34.678Z,3.50
2018-07-19T05:22:02.433Z,3.60
2018-07-19T05:24:30.159Z,3.63
2018-07-19T05:26:57.938Z,3.63
2018-07-19T05:29:25.646Z,3.40
2018-07-19T05:31:53.421Z,3.77
2018-07-19T05:34:21.185Z,3.67
2018-07-19T05:36:49.115Z,3.90
2018-07-19T05:39:16.946Z,3.90
2018-07-19T05:41:44.763Z,3.87
2018-07-19T05:44:12.663Z,4.27
2018-07-19T05:46:40.393Z,3.50
2018-07-19T05:49:08.201Z,3.73
2018-07-19T05:51:35.946Z,3.90
2018-07-19T05:54:03.739Z,4.20
2018-07-19T05:56:31.492Z,3.87
2018-07-19T05:58:59.214Z,4.40
2018-07-19T06:01:26.965Z,4.10
2018-07-19T06:03:54.770Z,4.40
2018-07-19T06:06:22.503Z,4.60
2018-07-19T06:08:50.291Z,3.77
2018-07-19T06:11:18.143Z,4.47
2018-07-19T06:13:45.858Z,4.23
2018-07-19T06:16:13.716Z,4.40
2018-07-19T06:18:41.688Z,4.07
2018-07-19T06:21:09.349Z,4.60
2018-07-19T06:23:37.070Z,3.97
2018-07-19T06:26:04.938Z,4.10
2018-07-19T06:28:32.685Z,4.37
2018-07-19T06:31:00.573Z,4.50
2018-07-19T06:33:28.497Z,4.10
2018-07-19T06:35:56.590Z,4.10
2018-07-19T06:38:24.306Z,4.70
2018-07-19T06:40:52.029Z,4.97
2018-07-19T06:43:19.725Z,4.40
2018-07-19T06:45:47.464Z,4.43
2018-07-19T06:48:15.190Z,4.60
2018-07-19T06:50:43.007Z,4.37
2018-07-19T06:53:10.776Z,4.70
2018-07-19T06:55:38.498Z,5.00
2018-07-19T06:58:06.245Z,4.83
2018-07-19T07:00:33.975Z,4.80
2018-07-19T07:03:01.858Z,5.03
2018-07-19T07:05:29.589Z,4.77
2018-07-19T07:07:57.373Z,4.97
2018-07-19T07:10:25.082Z,5.47
2018-07-19T07:12:52.777Z,5.20
2018-07-19T07:15:20.551Z,5.63
2018-07-19T07:17:48.245Z,5.30
2018-07-19T07:20:16.077Z,5.80
2018-07-19T07:22:43.795Z,5.43
2018-07-19T07:25:11.518Z,5.40
2018-07-19T07:27:39.247Z,5.60
2018-07-19T07:30:06.990Z,5.57
2018-07-19T07:32:34.784Z,5.67
2018-07-19T07:35:02.559Z,6.40
2018-07-19T07:37:30.290Z,6.10
2018-07-19T07:39:58.041Z,6.23
2018-07-19T07:42:25.725Z,6.50
2018-07-19T07:44:53.430Z,5.97
2018-07-19T07:47:21.133Z,6.57
2018-07-19T07:49:48.880Z,6.63
2018-07-19T07:52:16.614Z,6.13
2018-07-19T07:54:44.348Z,6.33
2018-07-19T07:57:12.093Z,6.30
2018-07-19T07:59:40.082Z,6.53
2018-07-19T08:02:08.045Z,6.17
2018-07-19T08:04:35.767Z,6.40
2018-07-19T08:07:03.537Z,6.30
2018-07-19T08:09:31.836Z,6.13
2018-07-19T08:11:59.602Z,6.10
2018-07-19T08:14:27.311Z,6.33
2018-07-19T08:16:55.004Z,6.70
2018-07-19T08:19:22.713Z,6.92
2018-07-19T08:21:50.436Z,6.75
2018-07-19T08:24:18.200Z,6.35
2018-07-19T08:26:45.934Z,6.95
2018-07-19T08:29:13.654Z,6.95
2018-07-19T08:31:41.438Z,7.28
2018-07-19T08:34:09.211Z,6.40
2018-07-19T08:36:36.953Z,7.20
2018-07-19T08:39:08.968Z,6.42
2018-07-19T08:41:36.703Z,6.42
2018-07-19T08:44:04.505Z,7.33
2018-07-19T08:46:32.283Z,6.05
2018-07-19T08:49:00.059Z,6.35
2018-07-19T08:51:28.229Z,6.95
2018-07-19T08:53:55.986Z,6.45
2018-07-19T08:56:23.885Z,6.25
2018-07-19T08:58:51.593Z,6.55
2018-07-19T09:01:19.319Z,6.53
2018-07-19T09:03:47.026Z,6.62
2018-07-19T09:06:14.774Z,6.78
2018-07-19T09:08:42.470Z,6.20
2018-07-19T09:11:10.187Z,5.87
2018-07-19T09:13:38.695Z,6.58
2018-07-19T09:16:06.398Z,6.45
2018-07-19T09:18:34.119Z,7.08
2018-07-19T09:21:01.830Z,6.42
2018-07-19T09:23:29.563Z,6.75
2018-07-19T09:25:57.279Z,5.95
2018-07-19T09:28:25.108Z,6.75
2018-07-19T09:30:52.836Z,6.40
2018-07-19T09:33:20.875Z,6.03
2018-07-19T09:35:48.582Z,5.80
2018-07-19T09:38:16.353Z,4.78
2018-07-19T09:40:44.966Z,4.65
2018-07-19T09:43:13.496Z,5.50
2018-07-19T09:45:41.472Z,4.92
2018-07-19T09:48:09.223Z,5.40
2018-07-19T09:50:38.001Z,5.00
2018-07-19T09:53:06.020Z,5.45
2018-07-19T09:55:33.788Z,5.00
2018-07-19T09:58:01.557Z,4.70
2018-07-19T10:00:34.975Z,5.22
2018-07-19T10:03:02.722Z,5.42
2018-07-19T10:05:30.487Z,5.62
2018-07-19T10:07:58.187Z,5.05
2018-07-19T10:10:25.898Z,5.78
2018-07-19T10:12:53.662Z,5.00
2018-07-19T10:15:21.416Z,4.58
2018-07-19T10:17:49.141Z,5.60
2018-07-19T10:20:16.902Z,5.55
2018-07-19T10:22:44.578Z,5.55
2018-07-19T10:25:12.295Z,4.72
2018-07-19T10:27:40.050Z,5.22
2018-07-19T10:30:08.096Z,5.30
2018-07-19T10:32:35.931Z,5.40
2018-07-19T10:35:03.935Z,5.20
2018-07-19T10:37:31.731Z,5.25
2018-07-19T10:39:59.455Z,5.92
2018-07-19T10:42:27.490Z,5.10
2018-07-19T10:44:55.206Z,5.40
2018-07-19T10:47:22.894Z,5.60
2018-07-19T10:49:50.609Z,4.80
2018-07-19T10:52:18.325Z,5.03
2018-07-19T10:54:46.973Z,5.35
2018-07-19T10:57:14.771Z,4.87
2018-07-19T10:59:42.492Z,5.10
2018-07-19T11:02:11.372Z,5.42
2018-07-19T11:04:39.147Z,4.67
2018-07-19T11:07:07.264Z,4.08
2018-07-19T11:09:35.167Z,4.10
2018-07-19T11:12:02.877Z,4.78
2018-07-19T11:14:30.797Z,4.62
2018-07-19T11:16:58.685Z,4.92
2018-07-19T11:19:26.402Z,4.85
2018-07-19T11:21:54.093Z,4.72
2018-07-19T11:24:21.862Z,3.83
2018-07-19T11:26:49.535Z,4.30
2018-07-19T11:29:17.332Z,5.15
2018-07-19T11:31:45.282Z,5.37
2018-07-19T11:34:13.001Z,4.87
2018-07-19T11:36:40.714Z,5.35
2018-07-19T11:40:38.029Z,4.60
2018-07-19T11:43:05.754Z,5.30
2018-07-19T11:45:33.475Z,5.20
2018-07-19T11:48:01.206Z,5.58
2018-07-19T11:50:28.992Z,4.92
2018-07-19T11:52:56.718Z,4.95
2018-07-19T11:55:24.493Z,5.05
2018-07-19T11:57:52.519Z,4.70
2018-07-19T12:00:21.041Z,4.55
2018-07-19T12:02:49.789Z,5.37
2018-07-19T12:05:17.979Z,4.83
2018-07-19T12:07:45.987Z,5.10
2018-07-19T12:10:13.816Z,5.03
2018-07-19T12:12:41.579Z,5.00
2018-07-19T12:15:09.440Z,4.87
2018-07-19T12:17:37.247Z,4.53
2018-07-19T12:20:05.371Z,5.25
2018-07-19T12:22:34.006Z,4.87
2018-07-19T12:25:01.795Z,4.92
2018-07-19T12:27:29.618Z,5.17
2018-07-19T12:29:57.543Z,4.67
2018-07-19T12:32:25.477Z,4.50
2018-07-19T12:34:53.322Z,4.58
2018-07-19T12:37:21.388Z,4.45
2018-07-19T12:39:49.853Z,5.20
2018-07-19T12:42:17.645Z,4.97
2018-07-19T12:44:45.361Z,4.85
2018-07-19T12:47:13.142Z,5.37
2018-07-19T12:49:40.929Z,4.92
2018-07-19T12:52:08.679Z,5.35
2018-07-19T12:54:36.310Z,4.62
2018-07-19T12:57:04.127Z,5.10
2018-07-19T12:59:31.754Z,6.00
2018-07-19T13:01:59.461Z,4.95
2018-07-19T13:04:27.138Z,4.87
2018-07-19T13:06:54.879Z,5.00
2018-07-19T13:09:22.634Z,6.03
2018-07-19T13:11:51.308Z,5.53
2018-07-19T13:14:19.127Z,5.47
2018-07-19T13:16:46.844Z,6.35
2018-07-19T13:19:14.631Z,4.35
2018-07-19T13:21:42.349Z,4.67
2018-07-19T13:24:10.107Z,4.65
2018-07-19T13:26:37.887Z,4.83
2018-07-19T13:29:05.714Z,4.75
2018-07-19T13:31:33.483Z,4.72
2018-07-19T13:34:01.206Z,6.15
2018-07-19T13:36:28.991Z,5.87
2018-07-19T13:38:56.999Z,4.50
2018-07-19T13:44:05.061Z,4.72
2018-07-19T13:46:32.817Z,4.60
2018-07-19T13:49:00.534Z,4.58
2018-07-19T13:51:28.275Z,4.47
2018-07-19T13:54:25.324Z,5.05
2018-07-19T14:01:28.054Z,5.15
2018-07-19T14:03:55.863Z,5.17
2018-07-19T14:06:23.630Z,4.58
2018-07-19T14:08:51.325Z,4.90
2018-07-19T14:11:19.139Z,5.17
2018-07-19T14:13:47.473Z,4.92
2018-07-19T14:16:15.319Z,4.50
2018-07-19T14:18:43.053Z,4.35
2018-07-19T14:21:10.745Z,4.25
2018-07-19T14:23:38.468Z,4.97
2018-07-19T14:26:06.287Z,4.58
2018-07-19T14:28:33.993Z,4.92
2018-07-19T14:31:01.827Z,4.78
2018-07-19T14:33:29.541Z,4.62
2018-07-19T14:35:57.294Z,3.72
2018-07-19T14:38:25.136Z,4.95
2018-07-19T14:40:52.828Z,4.30
2018-07-19T14:43:20.518Z,4.70
2018-07-19T14:45:48.226Z,4.20
2018-07-19T14:48:16.039Z,4.28
2018-07-19T14:50:43.793Z,5.15
2018-07-19T14:53:11.533Z,4.83
2018-07-19T14:55:39.305Z,4.80
2018-07-19T14:58:07.071Z,4.35
2018-07-19T15:00:34.777Z,4.75
2018-07-19T15:03:02.643Z,4.20
2018-07-19T15:05:30.409Z,4.40
2018-07-19T15:07:58.166Z,4.05
2018-07-19T15:10:25.940Z,4.33
2018-07-19T15:12:53.687Z,4.05
2018-07-19T15:15:21.448Z,4.78
2018-07-19T15:17:49.137Z,4.00
2018-07-19T15:20:16.875Z,4.05
2018-07-19T15:22:44.924Z,4.17
2018-07-19T15:25:12.738Z,3.92
2018-07-19T15:27:40.483Z,4.12
2018-07-19T15:30:08.463Z,4.35
2018-07-19T15:32:36.207Z,4.55
2018-07-19T15:35:04.311Z,4.17
2018-07-19T15:37:32.076Z,3.58
2018-07-19T15:39:59.760Z,3.98
2018-07-19T15:42:27.493Z,3.75
2018-07-19T15:44:55.261Z,3.77
2018-07-19T15:47:22.960Z,4.17
2018-07-19T15:49:50.757Z,3.50
2018-07-19T15:52:18.599Z,3.33
2018-07-19T15:54:46.398Z,3.62
2018-07-19T15:57:14.114Z,3.92
2018-07-19T15:59:41.836Z,3.30
2018-07-19T16:02:09.544Z,3.05
2018-07-19T16:04:37.272Z,3.50
2018-07-19T16:07:05.057Z,3.42
2018-07-19T16:09:32.899Z,3.83
2018-07-19T16:12:00.615Z,3.37
2018-07-19T16:14:28.322Z,3.85
2018-07-19T16:16:56.070Z,3.60
2018-07-19T16:19:23.807Z,4.00
2018-07-19T16:21:51.528Z,3.60
2018-07-19T16:24:19.239Z,3.92
2018-07-19T16:26:46.987Z,3.77
2018-07-19T16:29:14.781Z,3.87
2018-07-19T16:31:42.512Z,4.37
2018-07-19T16:34:10.229Z,3.65
2018-07-19T16:36:37.902Z,3.67
2018-07-19T16:39:08.079Z,3.33
2018-07-19T16:41:36.100Z,3.92
2018-07-19T16:44:03.810Z,3.87
2018-07-19T16:46:31.601Z,3.50
2018-07-19T16:48:59.375Z,3.70
2018-07-19T16:51:27.077Z,4.03
2018-07-19T16:53:54.768Z,4.03
2018-07-19T16:56:22.487Z,4.30
2018-07-19T16:58:50.192Z,4.65
2018-07-19T17:01:18.226Z,4.28
2018-07-19T17:03:46.249Z,4.33
2018-07-19T17:06:14.983Z,3.67
2018-07-19T17:08:42.791Z,4.35
2018-07-19T17:11:10.641Z,3.65
2018-07-19T17:13:38.538Z,3.75
2018-07-19T17:16:06.497Z,3.70
2018-07-19T17:18:35.016Z,3.35
2018-07-19T17:21:02.903Z,4.70
2018-07-19T17:23:30.903Z,4.12
2018-07-19T17:25:59.691Z,4.55
2018-07-19T17:28:27.470Z,4.00
2018-07-19T17:30:55.188Z,3.70
2018-07-19T17:33:22.962Z,3.45
2018-07-19T17:35:50.949Z,3.35
2018-07-19T17:38:18.648Z,3.22
2018-07-19T17:40:46.453Z,3.20
2018-07-19T17:43:14.149Z,2.77
2018-07-19T17:45:41.890Z,3.08
2018-07-19T17:48:09.565Z,2.85
2018-07-19T17:50:37.384Z,2.52
2018-07-19T17:57:40.190Z,2.40
2018-07-19T18:00:07.986Z,2.33
2018-07-19T18:02:35.721Z,2.10
2018-07-19T18:05:03.603Z,2.35
2018-07-19T18:07:31.329Z,2.30
2018-07-19T18:09:59.049Z,2.50
2018-07-19T18:12:26.800Z,2.10
2018-07-19T18:14:54.558Z,2.00
2018-07-19T18:17:22.350Z,2.42
2018-07-19T18:19:50.085Z,1.92
2018-07-19T18:22:17.821Z,2.20
2018-07-19T18:24:45.594Z,1.52
2018-07-19T18:27:13.358Z,2.00
2018-07-19T18:29:41.069Z,1.72
2018-07-19T18:32:08.779Z,1.85
2018-07-19T18:34:36.500Z,1.67
2018-07-19T18:37:04.247Z,1.92
2018-07-19T18:39:31.957Z,1.80
2018-07-19T18:41:59.711Z,1.80
2018-07-19T18:44:27.418Z,1.60
2018-07-19T18:46:55.106Z,1.70
2018-07-19T18:49:22.817Z,1.70
2018-07-19T18:51:50.575Z,2.05
2018-07-19T18:54:18.331Z,2.00
2018-07-19T18:56:46.025Z,2.00
2018-07-19T18:59:13.708Z,1.90
2018-07-19T19:01:41.405Z,1.92
2018-07-19T19:04:09.133Z,1.70
2018-07-19T19:06:37.079Z,2.08
2018-07-19T19:09:08.207Z,1.90
2018-07-19T19:11:35.931Z,2.08
2018-07-19T19:14:04.157Z,2.20
2018-07-19T19:16:31.878Z,2.08
2018-07-19T19:18:59.843Z,1.70
2018-07-19T19:21:27.669Z,1.82
2018-07-19T19:23:55.705Z,1.97
2018-07-19T19:26:23.449Z,2.10
2018-07-19T19:28:51.282Z,1.80
2018-07-19T19:31:19.288Z,2.00
2018-07-19T19:33:47.015Z,2.23
2018-07-19T19:36:14.743Z,1.80
2018-07-19T19:38:42.840Z,1.83
2018-07-19T19:41:10.917Z,2.20
2018-07-19T19:43:38.835Z,2.30
2018-07-19T19:46:06.729Z,1.80
2018-07-19T19:48:34.997Z,2.30
2018-07-19T19:51:03.750Z,2.00
2018-07-19T19:53:31.645Z,2.10
2018-07-19T19:55:59.398Z,2.43
2018-07-19T19:58:27.210Z,2.40
2018-07-19T20:00:54.998Z,2.13
2018-07-19T20:03:22.883Z,2.53
2018-07-19T20:05:50.635Z,2.30
2018-07-19T20:08:18.418Z,2.40
2018-07-19T20:10:46.214Z,2.50
2018-07-19T20:13:14.750Z,2.40
2018-07-19T20:15:42.481Z,2.17
2018-07-19T20:18:10.608Z,2.37
2018-07-19T20:20:38.416Z,2.47
2018-07-19T20:23:06.193Z,2.47
2018-07-19T20:25:33.973Z,2.60
2018-07-19T20:28:01.983Z,2.70
2018-07-19T20:30:29.749Z,2.60
2018-07-19T20:32:57.624Z,2.63
2018-07-19T20:35:25.396Z,2.47
2018-07-19T20:37:53.174Z,2.93
2018-07-19T20:40:20.969Z,3.00
2018-07-19T20:42:48.751Z,2.90
2018-07-19T20:45:16.528Z,3.20
2018-07-19T20:47:44.280Z,3.17
2018-07-19T20:50:12.011Z,3.17
2018-07-19T20:52:39.778Z,3.43
2018-07-19T20:55:08.104Z,3.40
2018-07-19T20:57:35.914Z,3.50
2018-07-19T21:00:04.626Z,3.20
2018-07-19T21:02:32.502Z,3.43
2018-07-19T21:05:00.294Z,3.90
2018-07-19T21:07:28.024Z,3.60
2018-07-19T21:09:55.858Z,3.43
2018-07-19T21:12:23.705Z,3.80
2018-07-19T21:14:51.577Z,3.97
2018-07-19T21:17:19.340Z,3.87
2018-07-19T21:19:47.116Z,3.90
2018-07-19T21:22:14.924Z,3.90
2018-07-19T21:24:42.790Z,3.80
2018-07-19T21:27:10.511Z,3.20
2018-07-19T21:29:38.266Z,3.83
2018-07-19T21:32:06.085Z,3.70
2018-07-19T21:34:33.855Z,3.07
2018-07-19T21:37:01.578Z,3.50
2018-07-19T21:39:29.308Z,4.03
2018-07-19T21:41:57.063Z,3.80
2018-07-19T21:44:24.735Z,4.33
2018-07-19T21:46:52.430Z,3.93
2018-07-19T21:49:20.106Z,4.37
2018-07-19T21:51:48.144Z,4.57
2018-07-19T21:54:16.270Z,4.40
2018-07-19T21:56:43.981Z,3.83
2018-07-19T21:59:11.672Z,3.70
2018-07-19T22:01:43.322Z,4.07
2018-07-19T22:04:11.341Z,4.30
2018-07-19T22:06:39.135Z,4.50
2018-07-19T22:09:09.062Z,4.17
2018-07-19T22:11:37.019Z,4.30
2018-07-19T22:14:05.306Z,3.93
2018-07-19T22:16:33.056Z,4.30
2018-07-19T22:19:01.177Z,4.23
2018-07-19T22:21:28.910Z,4.43
2018-07-19T22:23:56.598Z,4.40
2018-07-19T22:26:25.362Z,4.70
2018-07-19T22:28:53.158Z,4.50
2018-07-19T22:31:20.857Z,4.57
2018-07-19T22:33:48.878Z,4.10
2018-07-19T22:36:16.748Z,3.80
2018-07-19T22:38:44.555Z,4.57
2018-07-19T22:41:12.386Z,4.97
2018-07-19T22:43:40.209Z,4.73
2018-07-19T22:46:07.903Z,4.23
2018-07-19T22:48:35.594Z,4.57
2018-07-19T22:51:03.382Z,4.27
2018-07-19T22:53:31.075Z,4.63
2018-07-19T22:55:58.784Z,4.57
2018-07-19T22:58:26.470Z,4.37
2018-07-19T23:00:54.198Z,4.47
2018-07-19T23:03:22.105Z,4.57
2018-07-19T23:05:50.070Z,4.30
2018-07-19T23:08:17.790Z,4.87
2018-07-19T23:10:45.515Z,5.10
2018-07-19T23:13:13.215Z,4.40
2018-07-19T23:15:40.948Z,4.30
2018-07-19T23:18:08.699Z,4.33
2018-07-19T23:20:36.442Z,4.87
2018-07-19T23:23:04.166Z,4.67
2018-07-19T23:25:31.853Z,4.67
2018-07-19T23:27:59.602Z,4.60
2018-07-19T23:30:32.305Z,4.57
2018-07-19T23:33:00.015Z,3.97
2018-07-19T23:35:35.427Z,4.87
2018-07-19T23:38:06.039Z,5.07
2018-07-19T23:40:36.425Z,4.63
2018-07-19T23:43:08.791Z,4.53
2018-07-19T23:46:39.198Z,5.00
2018-07-19T23:49:07.290Z,4.23
2018-07-19T23:51:36.730Z,4.27
2018-07-19T23:54:04.455Z,4.07
2018-07-19T23:56:32.533Z,4.67
2018-07-19T23:59:00.272Z,5.00
